(°C)
14°
14°
15°
17°
19°
20°
21°
(°C)
11°
12°
14°
15°
17°
19°
20°
ЮЮЗ
Ю
ЮЮВ
ЮЮВ
ЮЮВ
ЮЮЗ
ЮЗ
(км/ч)
9-19
8-19
9-19
10-21
11-26
11-30
12-31
(мм)
0
3
1.5
0
0
0
0
(%)
20
31
55
33
20
13
6

Высота солнцестояния

/ 22.3°
sun-icon
UV 4
01:23
23:13
Первая четверть (94°)
12:00
01:17

METAR для 64.6°С 40.72°В (ULAA)

Время Условия Температура/
Точка росы
Ветер Видимость Погода Облачность Давление Изменить Необработанный
VFR 13°C / 8°C 200º variable 160º to 240º 4kt >10km Light Showers Rain 3.00mm precipitation Vertical Visibility of 0ft. 1016 No Significant change. Runway 08: Wet or puddles, 51-100% contamination with <1mm, friction coefficient 0.60. ULAA 180300Z 20002MPS 160V240 9999 -SHRA SCT023CB 13/08 Q1016 R08/290060 NOSIG RMK QFE761/1015
VFR 14°C / 7°C 210º variable 170º to 250º 6kt >10km - Scattered Clouds 3300ft 1016 No Significant change ULAA 180230Z 21003MPS 170V250 9999 SCT033 14/07 Q1016 R08/CLRD70 NOSIG RMK QFE761/1015
VFR 14°C / 6°C 210º variable 170º to 250º 8kt >10km - Scattered Clouds 3300ft 1016 No Significant change ULAA 180200Z 21004MPS 170V250 9999 SCT033 14/06 Q1016 R08/CLRD70 NOSIG RMK QFE761/1015
VFR 13°C / 5°C 210º variable 170º to 260º 8kt >10km - Scattered Clouds 3300ft 1017 No Significant change ULAA 180130Z 21004MPS 170V260 9999 SCT033 13/05 Q1017 R08/CLRD70 NOSIG RMK QFE761/1015
VFR 13°C / 5°C 210º variable 160º to 240º 6kt >10km - Scattered Clouds 3300ft 1017 No Significant change ULAA 180100Z 21003MPS 160V240 9999 SCT033 13/05 Q1017 R08/CLRD70 NOSIG RMK QFE762/1016
VFR 13°C / 4°C 200º variable 160º to 230º 4kt >10km - Scattered Clouds 3300ft 1017 No Significant change ULAA 180030Z 20002MPS 160V230 9999 SCT033 13/04 Q1017 R08/CLRD70 NOSIG RMK QFE762/1016
VFR 13°C / 3°C 190º variable 150º to 220º 6kt >10km - Scattered Clouds 3300ft 1018 No Significant change ULAA 180000Z 19003MPS 150V220 9999 SCT033 13/03 Q1018 R08/CLRD70 NOSIG RMK QFE762/1017
VFR 13°C / 3°C 200º variable 170º to 230º 6kt >10km - Scattered Clouds 3300ft 1018 No Significant change ULAA 172330Z 20003MPS 170V230 9999 SCT033 13/03 Q1018 R08/CLRD70 NOSIG RMK QFE763/1017
VFR 12°C / 4°C 190º variable 150º to 230º 4kt >10km - Scattered Clouds 3300ft 1019 No Significant change ULAA 172300Z 19002MPS 150V230 9999 SCT033 12/04 Q1019 R08/CLRD70 NOSIG RMK QFE763/1017
VFR 12°C / 4°C 190º variable 160º to 220º 6kt >10km - Scattered Clouds 3300ft 1019 No Significant change ULAA 172230Z 19003MPS 160V220 9999 SCT033 12/04 Q1019 R08/CLRD70 NOSIG RMK QFE763/1018
VFR 11°C / 5°C 190º variable 160º to 220º 4kt >10km - Scattered Clouds 3300ft 1019 No Significant change ULAA 172200Z 19002MPS 160V220 9999 SCT033 11/05 Q1019 R08/CLRD70 NOSIG RMK QFE763/1018
VFR 11°C / 6°C 200º variable 160º to 230º 4kt >10km - Broken Clouds 3600ft 1019 No Significant change ULAA 172130Z 20002MPS 160V230 9999 BKN036 11/06 Q1019 R08/CLRD70 NOSIG RMK QFE763/1018
VFR 11°C / 6°C 190º 4kt >10km - Broken Clouds 3700ft 1020 No Significant change ULAA 172100Z 19002MPS 9999 BKN037 11/06 Q1020 R08/CLRD70 NOSIG RMK QFE764/1018
VFR 11°C / 6°C 180º 4kt >10km - Broken Clouds 3300ft 1020 No Significant change ULAA 172030Z 18002MPS 9999 BKN033 11/06 Q1020 R08/CLRD70 NOSIG RMK QFE764/1019
VFR 10°C / 6°C 190º variable 160º to 220º 4kt >10km - Scattered Clouds 3000ft 1020 No Significant change ULAA 172000Z 19002MPS 160V220 9999 SCT030 10/06 Q1020 R08/CLRD70 NOSIG RMK QFE764/1019
VFR 10°C / 6°C 180º variable 150º to 210º 4kt >10km - Few Clouds 3000ft 1020 No Significant change ULAA 171930Z 18002MPS 150V210 9999 FEW030 10/06 Q1020 R08/CLRD70 NOSIG RMK QFE764/1019
VFR 11°C / 6°C 190º 4kt >10km - Few Clouds 3000ft 1020 No Significant change ULAA 171900Z 19002MPS 9999 FEW030 11/06 Q1020 R08/CLRD70 NOSIG RMK QFE764/1019
VFR 13°C / 6°C 200º 2kt >10km - Few Clouds 3000ft 1020 No Significant change ULAA 171830Z 20001MPS 9999 FEW030 13/06 Q1020 R08/CLRD70 NOSIG RMK QFE764/1019
VFR 14°C / 5°C variable 2kt >10km - Few Clouds 3000ft 1020 No Significant change ULAA 171800Z VRB01MPS 9999 FEW030 14/05 Q1020 R08/CLRD70 NOSIG RMK QFE764/1019
VFR 15°C / 3°C variable 2kt >10km - Few Clouds 3000ft 1020 No Significant change ULAA 171730Z VRB01MPS 9999 FEW030 15/03 Q1020 R08/CLRD70 NOSIG RMK QFE764/1019
VFR 16°C / 3°C 240º variable 210º to 270º 4kt >10km - Few Clouds 3000ft 1020 No Significant change ULAA 171700Z 24002MPS 210V270 9999 FEW030 16/03 Q1020 R08/CLRD70 NOSIG RMK QFE764/1019
VFR 16°C / 3°C variable 2kt >10km - Few Clouds 3000ft 1020 No Significant change ULAA 171630Z VRB01MPS 9999 FEW030 16/03 Q1020 R08/CLRD70 NOSIG RMK QFE764/1019
VFR 16°C / 2°C 320º variable 280º to 010º 4kt >10km - Few Clouds 3000ft 1020 No Significant change ULAA 171600Z 32002MPS 280V010 9999 FEW030 16/02 Q1020 R26/CLRD70 NOSIG RMK QFE763/1018
VFR 16°C / 3°C 310º variable 260º to 360º 4kt >10km - Few Clouds 3000ft 1020 No Significant change ULAA 171530Z 31002MPS 260V360 9999 FEW030 16/03 Q1020 R26/CLRD70 NOSIG RMK QFE764/1018

VFR

13°C / 8°C

[Больше]
Ветер 200º variable 160º to 240º 4kt
Видимость >10km
Погода Light Showers Rain 3.00mm precipitation
Облачность Vertical Visibility of 0ft.
Давление 1016
Изменить No Significant change. Runway 08: Wet or puddles, 51-100% contamination with <1mm, friction coefficient 0.60.
Необработанный ULAA 180300Z 20002MPS 160V240 9999 -SHRA SCT023CB 13/08 Q1016 R08/290060 NOSIG RMK QFE761/1015

VFR

14°C / 7°C

[Больше]
Ветер 210º variable 170º to 250º 6kt
Видимость >10km
Погода -
Облачность Scattered Clouds 3300ft
Давление 1016
Изменить No Significant change
Необработанный ULAA 180230Z 21003MPS 170V250 9999 SCT033 14/07 Q1016 R08/CLRD70 NOSIG RMK QFE761/1015

VFR

14°C / 6°C

[Больше]
Ветер 210º variable 170º to 250º 8kt
Видимость >10km
Погода -
Облачность Scattered Clouds 3300ft
Давление 1016
Изменить No Significant change
Необработанный ULAA 180200Z 21004MPS 170V250 9999 SCT033 14/06 Q1016 R08/CLRD70 NOSIG RMK QFE761/1015

VFR

13°C / 5°C

[Больше]
Ветер 210º variable 170º to 260º 8kt
Видимость >10km
Погода -
Облачность Scattered Clouds 3300ft
Давление 1017
Изменить No Significant change
Необработанный ULAA 180130Z 21004MPS 170V260 9999 SCT033 13/05 Q1017 R08/CLRD70 NOSIG RMK QFE761/1015

VFR

13°C / 5°C

[Больше]
Ветер 210º variable 160º to 240º 6kt
Видимость >10km
Погода -
Облачность Scattered Clouds 3300ft
Давление 1017
Изменить No Significant change
Необработанный ULAA 180100Z 21003MPS 160V240 9999 SCT033 13/05 Q1017 R08/CLRD70 NOSIG RMK QFE762/1016

VFR

13°C / 4°C

[Больше]
Ветер 200º variable 160º to 230º 4kt
Видимость >10km
Погода -
Облачность Scattered Clouds 3300ft
Давление 1017
Изменить No Significant change
Необработанный ULAA 180030Z 20002MPS 160V230 9999 SCT033 13/04 Q1017 R08/CLRD70 NOSIG RMK QFE762/1016

VFR

13°C / 3°C

[Больше]
Ветер 190º variable 150º to 220º 6kt
Видимость >10km
Погода -
Облачность Scattered Clouds 3300ft
Давление 1018
Изменить No Significant change
Необработанный ULAA 180000Z 19003MPS 150V220 9999 SCT033 13/03 Q1018 R08/CLRD70 NOSIG RMK QFE762/1017

VFR

13°C / 3°C

[Больше]
Ветер 200º variable 170º to 230º 6kt
Видимость >10km
Погода -
Облачность Scattered Clouds 3300ft
Давление 1018
Изменить No Significant change
Необработанный ULAA 172330Z 20003MPS 170V230 9999 SCT033 13/03 Q1018 R08/CLRD70 NOSIG RMK QFE763/1017

VFR

12°C / 4°C

[Больше]
Ветер 190º variable 150º to 230º 4kt
Видимость >10km
Погода -
Облачность Scattered Clouds 3300ft
Давление 1019
Изменить No Significant change
Необработанный ULAA 172300Z 19002MPS 150V230 9999 SCT033 12/04 Q1019 R08/CLRD70 NOSIG RMK QFE763/1017

VFR

12°C / 4°C

[Больше]
Ветер 190º variable 160º to 220º 6kt
Видимость >10km
Погода -
Облачность Scattered Clouds 3300ft
Давление 1019
Изменить No Significant change
Необработанный ULAA 172230Z 19003MPS 160V220 9999 SCT033 12/04 Q1019 R08/CLRD70 NOSIG RMK QFE763/1018

VFR

11°C / 5°C

[Больше]
Ветер 190º variable 160º to 220º 4kt
Видимость >10km
Погода -
Облачность Scattered Clouds 3300ft
Давление 1019
Изменить No Significant change
Необработанный ULAA 172200Z 19002MPS 160V220 9999 SCT033 11/05 Q1019 R08/CLRD70 NOSIG RMK QFE763/1018

VFR

11°C / 6°C

[Больше]
Ветер 200º variable 160º to 230º 4kt
Видимость >10km
Погода -
Облачность Broken Clouds 3600ft
Давление 1019
Изменить No Significant change
Необработанный ULAA 172130Z 20002MPS 160V230 9999 BKN036 11/06 Q1019 R08/CLRD70 NOSIG RMK QFE763/1018

VFR

11°C / 6°C

[Больше]
Ветер 190º 4kt
Видимость >10km
Погода -
Облачность Broken Clouds 3700ft
Давление 1020
Изменить No Significant change
Необработанный ULAA 172100Z 19002MPS 9999 BKN037 11/06 Q1020 R08/CLRD70 NOSIG RMK QFE764/1018

VFR

11°C / 6°C

[Больше]
Ветер 180º 4kt
Видимость >10km
Погода -
Облачность Broken Clouds 3300ft
Давление 1020
Изменить No Significant change
Необработанный ULAA 172030Z 18002MPS 9999 BKN033 11/06 Q1020 R08/CLRD70 NOSIG RMK QFE764/1019

VFR

10°C / 6°C

[Больше]
Ветер 190º variable 160º to 220º 4kt
Видимость >10km
Погода -
Облачность Scattered Clouds 3000ft
Давление 1020
Изменить No Significant change
Необработанный ULAA 172000Z 19002MPS 160V220 9999 SCT030 10/06 Q1020 R08/CLRD70 NOSIG RMK QFE764/1019

VFR

10°C / 6°C

[Больше]
Ветер 180º variable 150º to 210º 4kt
Видимость >10km
Погода -
Облачность Few Clouds 3000ft
Давление 1020
Изменить No Significant change
Необработанный ULAA 171930Z 18002MPS 150V210 9999 FEW030 10/06 Q1020 R08/CLRD70 NOSIG RMK QFE764/1019

VFR

11°C / 6°C

[Больше]
Ветер 190º 4kt
Видимость >10km
Погода -
Облачность Few Clouds 3000ft
Давление 1020
Изменить No Significant change
Необработанный ULAA 171900Z 19002MPS 9999 FEW030 11/06 Q1020 R08/CLRD70 NOSIG RMK QFE764/1019

VFR

13°C / 6°C

[Больше]
Ветер 200º 2kt
Видимость >10km
Погода -
Облачность Few Clouds 3000ft
Давление 1020
Изменить No Significant change
Необработанный ULAA 171830Z 20001MPS 9999 FEW030 13/06 Q1020 R08/CLRD70 NOSIG RMK QFE764/1019

VFR

14°C / 5°C

[Больше]
Ветер variable 2kt
Видимость >10km
Погода -
Облачность Few Clouds 3000ft
Давление 1020
Изменить No Significant change
Необработанный ULAA 171800Z VRB01MPS 9999 FEW030 14/05 Q1020 R08/CLRD70 NOSIG RMK QFE764/1019

VFR

15°C / 3°C

[Больше]
Ветер variable 2kt
Видимость >10km
Погода -
Облачность Few Clouds 3000ft
Давление 1020
Изменить No Significant change
Необработанный ULAA 171730Z VRB01MPS 9999 FEW030 15/03 Q1020 R08/CLRD70 NOSIG RMK QFE764/1019

VFR

16°C / 3°C

[Больше]
Ветер 240º variable 210º to 270º 4kt
Видимость >10km
Погода -
Облачность Few Clouds 3000ft
Давление 1020
Изменить No Significant change
Необработанный ULAA 171700Z 24002MPS 210V270 9999 FEW030 16/03 Q1020 R08/CLRD70 NOSIG RMK QFE764/1019

VFR

16°C / 3°C

[Больше]
Ветер variable 2kt
Видимость >10km
Погода -
Облачность Few Clouds 3000ft
Давление 1020
Изменить No Significant change
Необработанный ULAA 171630Z VRB01MPS 9999 FEW030 16/03 Q1020 R08/CLRD70 NOSIG RMK QFE764/1019

VFR

16°C / 2°C

[Больше]
Ветер 320º variable 280º to 010º 4kt
Видимость >10km
Погода -
Облачность Few Clouds 3000ft
Давление 1020
Изменить No Significant change
Необработанный ULAA 171600Z 32002MPS 280V010 9999 FEW030 16/02 Q1020 R26/CLRD70 NOSIG RMK QFE763/1018

VFR

16°C / 3°C

[Больше]
Ветер 310º variable 260º to 360º 4kt
Видимость >10km
Погода -
Облачность Few Clouds 3000ft
Давление 1020
Изменить No Significant change
Необработанный ULAA 171530Z 31002MPS 260V360 9999 FEW030 16/03 Q1020 R26/CLRD70 NOSIG RMK QFE764/1018

TAF для 64.6°С 40.72°В (ULAA)

From till


From till Wind 230º 6kt. Visibility 9000m. Broken Clouds 2000ft.
Temporarly from till Wind 190º 6kt. Gust 19kt. Visibility 3100m. Light Showers Rain . Few Clouds 1000ft. Broken Clouds 1600ft.
Temporarly from till Wind 270º 10kt. Gust 25kt.
Temporarly from till Wind 300º 6kt. Gust 25kt. Visibility 6000m. Light Showers Rain . Broken Clouds 1600ft.
Temporarly from till Wind 270º 6kt. Gust 23kt.

Необработанный: TAF ULAA 180200Z 1803/1903 23003MPS 9000 BKN020 TEMPO 1803/1807 19003G10MPS 3100 -SHRA FEW010 BKN016CB TEMPO 1807/1812 27005G13MPS TEMPO 1812/1821 30003G13MPS 6000 -SHRA BKN016CB TEMPO 1821/1903 27003G12MPS

rainNOW

0.0 мм
0.0 мм
0.0 мм
0.0 мм
0.0 мм
0.0 мм
0.0 мм
0.0 мм
0.0 мм
0.0 мм
0.0 мм
0.0 мм

Текущие спутниковые изображения и снимки дождя для 64.6°С 40.72°В

Указатель местности находится на 64.6°С 40.72°В. [Больше]

Спутниковое изображение в реальном времени сочетает в себе видимый свет в дневное время с инфракрасным излучением в ночное время. Ночью изображение получается не темным, так как инфракрасное излучение может обнаружить разницу температур. К сожалению, низкие облака и туман трудно отличить от температуры у поверхности земли и поэтому могут быть почти незаметны ночью. Спутниковые снимки Meteosat для Европы обновляются каждые 5 минут в режиме реального времени.Снимки GOES-16/GOES-17 (Северная и Южная Америка) и Химавари (Азия) обновляются каждые 10 минут.

Копирайт 2021 EUMETSAT / meteoblue. / Копирайт 2021 meteoblue

Радарный и сверхкраткосрочный прогноз осадков для 64.6°С 40.72°В

Индикатор местности находится на 64.6°С 40.72°В. Анимация показывает радар осадков за последний час, а также прогноз погоды для1h. Умеренная морось или легкий снег могут быть незаметны для радара. Интенсивность осадковмаркированна цветной кодировкой, начиная со светло-синего и заканчивая темно-пурпурным.